createdAt,value
2018-01-11T00:01:25.689Z,100634.97
2018-01-11T00:03:54.033Z,100633.50
2018-01-11T00:06:22.354Z,100637.25
2018-01-11T00:08:50.696Z,100636.17
2018-01-11T00:11:19.022Z,100636.34
2018-01-11T00:13:47.367Z,100639.35
2018-01-11T00:16:15.686Z,100638.42
2018-01-11T00:18:44.025Z,100634.54
2018-01-11T00:21:12.347Z,100633.16
2018-01-11T00:23:40.687Z,100641.75
2018-01-11T00:26:09.001Z,100649.61
2018-01-11T00:28:37.337Z,100641.59
2018-01-11T00:31:05.653Z,100643.39
2018-01-11T00:33:33.994Z,100643.83
2018-01-11T00:36:02.315Z,100647.00
2018-01-11T00:38:30.707Z,100641.95
2018-01-11T00:40:59.058Z,100650.41
2018-01-11T00:43:27.394Z,100648.47
2018-01-11T00:45:55.714Z,100652.78
2018-01-11T00:48:24.058Z,100648.13
2018-01-11T00:50:52.386Z,100654.94
2018-01-11T00:53:20.721Z,100658.28
2018-01-11T00:55:49.043Z,100653.42
2018-01-11T00:58:17.382Z,100652.70
2018-01-11T01:00:45.697Z,100657.95
2018-01-11T01:03:14.029Z,100656.25
2018-01-11T01:05:42.350Z,100650.56
2018-01-11T01:08:10.665Z,100656.15
2018-01-11T01:10:39.011Z,100659.22
2018-01-11T01:13:07.329Z,100667.09
2018-01-11T01:15:35.670Z,100664.84
2018-01-11T01:18:03.982Z,100670.58
2018-01-11T01:20:32.330Z,100670.67
2018-01-11T01:25:35.222Z,100677.14
2018-01-11T01:28:04.114Z,100675.00
2018-01-11T01:30:32.454Z,100677.72
2018-01-11T01:33:00.780Z,100679.06
2018-01-11T01:35:29.126Z,100678.20
2018-01-11T01:37:57.445Z,100674.94
2018-01-11T01:40:25.787Z,100673.77
2018-01-11T01:42:54.111Z,100680.60
2018-01-11T01:45:22.450Z,100684.02
2018-01-11T01:47:50.770Z,100681.31
2018-01-11T01:50:19.113Z,100680.55
2018-01-11T01:52:47.434Z,100688.62
2018-01-11T01:55:15.778Z,100688.70
2018-01-11T01:57:44.097Z,100693.38
2018-01-11T02:00:12.433Z,100692.70
2018-01-11T02:02:40.762Z,100691.68
2018-01-11T02:05:09.101Z,100692.16
2018-01-11T02:07:37.423Z,100691.17
2018-01-11T02:10:05.762Z,100688.92
2018-01-11T02:12:34.078Z,100688.02
2018-01-11T02:15:02.415Z,100693.03
2018-01-11T02:17:30.734Z,100687.67
2018-01-11T02:19:59.074Z,100694.26
2018-01-11T02:22:27.399Z,100689.89
2018-01-11T02:24:55.735Z,100692.55
2018-01-11T02:27:24.054Z,100686.41
2018-01-11T02:29:52.391Z,100688.98
2018-01-11T02:32:20.709Z,100692.55
2018-01-11T02:34:49.041Z,100696.80
2018-01-11T02:37:17.367Z,100698.59
2018-01-11T02:39:45.714Z,100692.23
2018-01-11T02:42:14.031Z,100701.64
2018-01-11T02:44:42.374Z,100699.25
2018-01-11T02:47:10.698Z,100695.03
2018-01-11T02:49:39.042Z,100707.05
2018-01-11T02:52:07.368Z,100707.86
2018-01-11T02:54:35.686Z,100711.54
2018-01-11T02:57:04.026Z,100711.37
2018-01-11T02:59:32.349Z,100713.19
2018-01-11T03:02:00.690Z,100718.33
2018-01-11T03:04:29.014Z,100716.55
2018-01-11T03:06:57.350Z,100717.05
2018-01-11T03:09:25.678Z,100720.58
2018-01-11T03:11:54.026Z,100722.35
2018-01-11T03:14:22.345Z,100716.36
2018-01-11T03:16:50.694Z,100713.31
2018-01-11T03:19:19.018Z,100715.09
2018-01-11T03:21:47.371Z,100714.24
2018-01-11T03:24:15.692Z,100711.59
2018-01-11T03:26:44.030Z,100714.47
2018-01-11T03:29:12.349Z,100710.64
2018-01-11T03:31:40.697Z,100706.73
2018-01-11T03:34:09.048Z,100708.45
2018-01-11T03:36:37.377Z,100707.67
2018-01-11T03:39:05.725Z,100708.33
2018-01-11T03:41:34.063Z,100722.56
2018-01-11T03:44:02.389Z,100719.41
2018-01-11T03:46:30.733Z,100726.68
2018-01-11T03:48:59.054Z,100723.12
2018-01-11T03:51:27.401Z,100721.30
2018-01-11T03:53:55.726Z,100730.43
2018-01-11T03:56:24.073Z,100726.94
2018-01-11T03:58:52.396Z,100723.84
2018-01-11T04:01:20.738Z,100723.95
2018-01-11T04:03:49.063Z,100722.75
2018-01-11T04:06:17.402Z,100725.62
2018-01-11T04:08:45.758Z,100723.44
2018-01-11T04:11:14.103Z,100737.53
2018-01-11T04:13:42.426Z,100732.66
2018-01-11T04:16:10.766Z,100733.54
2018-01-11T04:18:39.100Z,100726.28
2018-01-11T04:21:07.466Z,100725.41
2018-01-11T04:23:35.792Z,100727.80
2018-01-11T04:26:04.151Z,100733.60
2018-01-11T04:28:32.472Z,100729.58
2018-01-11T04:31:00.785Z,100729.95
2018-01-11T04:33:29.133Z,100733.17
2018-01-11T04:38:32.082Z,100739.85
2018-01-11T04:41:00.402Z,100738.07
2018-01-11T04:43:28.745Z,100740.22
2018-01-11T04:45:57.062Z,100743.81
2018-01-11T04:48:25.406Z,100746.88
2018-01-11T04:50:53.736Z,100750.66
2018-01-11T04:53:22.073Z,100753.77
2018-01-11T04:55:50.398Z,100764.21
2018-01-11T04:58:18.747Z,100766.21
2018-01-11T05:00:52.482Z,100776.16
2018-01-11T05:03:20.857Z,100773.19
2018-01-11T05:05:49.178Z,100780.52
2018-01-11T05:08:17.517Z,100781.80
2018-01-11T05:10:45.842Z,100791.47
2018-01-11T05:13:14.183Z,100789.69
2018-01-11T05:15:42.517Z,100795.36
2018-01-11T05:18:10.903Z,100801.05
2018-01-11T05:20:39.226Z,100798.98
2018-01-11T05:23:07.566Z,100803.78
2018-01-11T05:25:35.893Z,100812.16
2018-01-11T05:28:04.234Z,100809.16
2018-01-11T05:30:32.557Z,100813.04
2018-01-11T05:33:00.901Z,100814.29
2018-01-11T05:35:29.227Z,100815.23
2018-01-11T05:37:57.881Z,100816.92
2018-01-11T05:40:26.207Z,100821.20
2018-01-11T05:42:54.557Z,100829.95
2018-01-11T05:45:22.887Z,100818.03
2018-01-11T05:47:51.239Z,100825.86
2018-01-11T05:50:19.568Z,100835.91
2018-01-11T05:52:47.961Z,100837.66
2018-01-11T05:55:16.266Z,100834.05
2018-01-11T05:57:44.622Z,100845.27
2018-01-11T06:00:12.950Z,100840.03
2018-01-11T06:02:41.330Z,100844.01
2018-01-11T06:05:09.649Z,100846.78
2018-01-11T06:07:38.533Z,100849.88
2018-01-11T06:10:06.966Z,100852.58
2018-01-11T06:12:35.301Z,100843.92
2018-01-11T06:15:03.636Z,100853.48
2018-01-11T06:17:31.988Z,100850.59
2018-01-11T06:20:00.326Z,100852.30
2018-01-11T06:22:28.678Z,100847.52
2018-01-11T06:24:57.010Z,100857.91
2018-01-11T06:27:25.378Z,100870.00
2018-01-11T06:29:53.724Z,100870.85
2018-01-11T06:32:22.151Z,100866.06
2018-01-11T06:34:50.519Z,100877.72
2018-01-11T06:37:18.867Z,100879.87
2018-01-11T06:39:47.198Z,100887.34
2018-01-11T06:42:19.256Z,100886.91
2018-01-11T06:44:47.728Z,100887.92
2018-01-11T06:47:16.238Z,100883.98
2018-01-11T06:49:44.566Z,100883.12
2018-01-11T06:52:12.898Z,100885.69
2018-01-11T06:54:41.245Z,100885.16
2018-01-11T06:57:09.575Z,100895.16
2018-01-11T06:59:37.929Z,100897.32
2018-01-11T07:02:06.256Z,100902.11
2018-01-11T07:04:34.605Z,100899.47
2018-01-11T07:07:02.930Z,100903.43
2018-01-11T07:09:31.278Z,100904.34
2018-01-11T07:11:59.602Z,100910.06
2018-01-11T07:14:27.956Z,100914.00
2018-01-11T07:16:57.155Z,100914.38
2018-01-11T07:19:25.502Z,100920.95
2018-01-11T07:21:53.822Z,100920.88
2018-01-11T07:24:22.158Z,100926.53
2018-01-11T07:26:50.481Z,100938.75
2018-01-11T07:29:18.829Z,100931.05
2018-01-11T07:31:47.162Z,100940.62
2018-01-11T07:34:15.518Z,100940.19
2018-01-11T07:36:44.067Z,100953.73
2018-01-11T07:39:12.422Z,100946.77
2018-01-11T07:41:40.747Z,100958.61
2018-01-11T07:44:09.102Z,100959.02
2018-01-11T07:46:37.439Z,100952.00
2018-01-11T07:49:05.803Z,100947.64
2018-01-11T07:51:34.154Z,100958.20
2018-01-11T07:54:02.512Z,100963.88
2018-01-11T07:56:30.835Z,100970.88
2018-01-11T07:58:59.194Z,100974.34
2018-01-11T08:01:27.523Z,100976.50
2018-01-11T08:03:55.871Z,100975.58
2018-01-11T08:06:24.983Z,100974.20
2018-01-11T08:08:53.379Z,100981.16
2018-01-11T08:11:21.713Z,100972.39
2018-01-11T08:13:50.070Z,100975.00
2018-01-11T08:16:18.465Z,100977.56
2018-01-11T08:18:46.797Z,100992.52
2018-01-11T08:21:15.174Z,100990.34
2018-01-11T08:23:43.523Z,100990.30
2018-01-11T08:26:11.852Z,100985.46
2018-01-11T08:28:40.217Z,100989.82
2018-01-11T08:31:08.557Z,101000.23
2018-01-11T08:33:36.915Z,101001.06
2018-01-11T08:36:06.329Z,101000.20
2018-01-11T08:38:34.683Z,101003.63
2018-01-11T08:41:03.003Z,101005.41
2018-01-11T08:43:31.354Z,101011.08
2018-01-11T08:45:59.694Z,101013.68
2018-01-11T08:48:28.037Z,101016.75
2018-01-11T08:50:56.384Z,101021.17
2018-01-11T08:53:24.711Z,101018.52
2018-01-11T08:55:53.054Z,101026.85
2018-01-11T08:58:21.379Z,101034.44
2018-01-11T09:00:49.727Z,101031.41
2018-01-11T09:03:18.054Z,101039.28
2018-01-11T09:05:46.406Z,101043.23
2018-01-11T09:08:14.725Z,101038.84
2018-01-11T09:10:43.091Z,101044.06
2018-01-11T09:13:11.414Z,101046.22
2018-01-11T09:15:39.765Z,101046.23
2018-01-11T09:18:08.086Z,101047.12
2018-01-11T09:20:36.432Z,101045.44
2018-01-11T09:23:04.791Z,101046.70
2018-01-11T09:25:33.139Z,101047.58
2018-01-11T09:28:01.460Z,101044.03
2018-01-11T09:30:29.814Z,101054.92
2018-01-11T09:32:58.132Z,101054.55
2018-01-11T09:35:26.482Z,101059.35
2018-01-11T09:37:54.806Z,101068.11
2018-01-11T09:40:23.153Z,101066.39
2018-01-11T09:42:51.486Z,101074.23
2018-01-11T09:45:19.832Z,101072.47
2018-01-11T09:47:48.159Z,101078.11
2018-01-11T09:50:16.551Z,101085.55
2018-01-11T09:52:44.830Z,101090.73
2018-01-11T09:55:13.204Z,101088.11
2018-01-11T09:57:41.522Z,101091.08
2018-01-11T10:00:09.875Z,101084.94
2018-01-11T10:02:38.250Z,101089.30
2018-01-11T10:05:06.588Z,101099.69
2018-01-11T10:07:34.906Z,101098.81
2018-01-11T10:10:03.262Z,101108.07
2018-01-11T10:12:31.587Z,101110.68
2018-01-11T10:14:59.939Z,101110.75
2018-01-11T10:17:28.270Z,101110.69
2018-01-11T10:19:56.626Z,101103.67
2018-01-11T10:22:24.945Z,101108.05
2018-01-11T10:24:53.324Z,101111.09
2018-01-11T10:27:21.646Z,101107.08
2018-01-11T10:29:50.029Z,101108.31
2018-01-11T10:32:18.353Z,101107.39
2018-01-11T10:34:46.702Z,101100.75
2018-01-11T10:37:15.030Z,101102.55
2018-01-11T10:39:43.382Z,101102.13
2018-01-11T10:42:11.707Z,101106.56
2018-01-11T10:44:40.059Z,101103.86
2018-01-11T10:47:08.388Z,101098.56
2018-01-11T10:49:36.730Z,101109.52
2018-01-11T10:52:05.088Z,101112.63
2018-01-11T10:54:33.433Z,101108.63
2018-01-11T10:57:01.790Z,101104.76
2018-01-11T10:59:30.114Z,101106.84
2018-01-11T11:02:04.046Z,101110.47
2018-01-11T11:04:32.313Z,101125.30
2018-01-11T11:07:01.619Z,101127.98
2018-01-11T11:09:29.968Z,101131.92
2018-01-11T11:11:58.309Z,101135.40
2018-01-11T11:14:26.638Z,101134.97
2018-01-11T11:16:54.985Z,101135.45
2018-01-11T11:19:23.314Z,101126.67
2018-01-11T11:21:51.666Z,101127.97
2018-01-11T11:24:19.989Z,101127.06
2018-01-11T11:26:48.338Z,101134.82
2018-01-11T11:29:16.662Z,101133.13
2018-01-11T11:31:45.012Z,101133.98
2018-01-11T11:34:13.342Z,101127.90
2018-01-11T11:36:41.687Z,101135.28
2018-01-11T11:39:10.019Z,101134.34
2018-01-11T11:41:38.374Z,101133.88
2018-01-11T11:44:06.699Z,101125.89
2018-01-11T11:46:35.050Z,101128.39
2018-01-11T11:49:03.377Z,101132.69
2018-01-11T11:51:31.738Z,101128.75
2018-01-11T11:54:00.063Z,101123.87
2018-01-11T11:56:28.415Z,101127.66
2018-01-11T11:58:56.743Z,101128.45
2018-01-11T12:01:25.107Z,101125.70
2018-01-11T12:03:53.434Z,101122.98
2018-01-11T12:06:21.783Z,101117.36
2018-01-11T12:08:50.107Z,101112.00
2018-01-11T12:11:18.457Z,101117.26
2018-01-11T12:13:46.786Z,101110.59
2018-01-11T12:16:15.139Z,101107.86
2018-01-11T12:18:43.474Z,101108.30
2018-01-11T12:21:11.844Z,101104.36
2018-01-11T12:23:40.154Z,101098.55
2018-01-11T12:26:08.502Z,101096.73
2018-01-11T12:28:36.840Z,101100.53
2018-01-11T12:31:05.182Z,101092.55
2018-01-11T12:33:33.517Z,101092.91
2018-01-11T12:36:01.867Z,101094.13
2018-01-11T12:38:30.193Z,101090.41
2018-01-11T12:40:58.537Z,101098.83
2018-01-11T12:43:26.871Z,101103.45
2018-01-11T12:45:56.182Z,101120.62
2018-01-11T12:48:24.915Z,101133.87
2018-01-11T12:50:53.269Z,101139.67
2018-01-11T12:53:21.593Z,101134.83
2018-01-11T12:55:49.922Z,101149.27
2018-01-11T12:58:18.274Z,101150.00
2018-01-11T13:00:46.624Z,101147.48
2018-01-11T13:03:14.953Z,101153.25
2018-01-11T13:05:43.282Z,101167.09
2018-01-11T13:08:12.183Z,101168.08
2018-01-11T13:10:40.508Z,101168.46
2018-01-11T13:13:08.901Z,101168.30
2018-01-11T13:15:37.226Z,101173.99
2018-01-11T13:18:05.578Z,101173.09
2018-01-11T13:20:33.902Z,101177.06
2018-01-11T13:23:02.249Z,101177.30
2018-01-11T13:25:30.574Z,101184.73
2018-01-11T13:27:58.923Z,101188.91
2018-01-11T13:30:27.254Z,101187.23
2018-01-11T13:32:55.610Z,101191.46
2018-01-11T13:35:23.940Z,101198.58
2018-01-11T13:37:52.282Z,101201.14
2018-01-11T13:40:20.610Z,101200.11
2018-01-11T13:42:48.989Z,101203.14
2018-01-11T13:45:17.314Z,101210.99
2018-01-11T13:47:45.662Z,101212.78
2018-01-11T13:50:13.985Z,101214.53
2018-01-11T13:52:43.017Z,101210.84
2018-01-11T13:55:11.345Z,101209.05
2018-01-11T13:57:39.698Z,101214.75
2018-01-11T14:00:08.018Z,101211.23
2018-01-11T14:02:36.366Z,101216.78
2018-01-11T14:05:04.699Z,101218.65
2018-01-11T14:07:33.078Z,101219.41
2018-01-11T14:10:01.370Z,101221.08
2018-01-11T14:12:29.759Z,101223.70
2018-01-11T14:14:58.067Z,101225.81
2018-01-11T14:17:26.415Z,101229.72
2018-01-11T14:19:54.748Z,101235.30
2018-01-11T14:22:23.098Z,101234.89
2018-01-11T14:24:51.535Z,101235.64
2018-01-11T14:27:19.922Z,101240.86
2018-01-11T14:29:48.238Z,101245.33
2018-01-11T14:32:16.578Z,101245.16
2018-01-11T14:34:44.906Z,101247.88
2018-01-11T14:37:13.255Z,101258.31
2018-01-11T14:39:41.585Z,101257.05
2018-01-11T14:42:09.928Z,101262.19
2018-01-11T14:44:38.254Z,101256.61
2018-01-11T14:47:06.598Z,101254.50
2018-01-11T14:49:34.938Z,101257.97
2018-01-11T14:52:03.304Z,101260.59
2018-01-11T14:54:31.628Z,101268.09
2018-01-11T14:56:59.994Z,101269.89
2018-01-11T14:59:28.325Z,101270.28
2018-01-11T15:01:56.660Z,101271.44
2018-01-11T15:04:25.014Z,101275.43
2018-01-11T15:06:53.345Z,101273.23
2018-01-11T15:09:21.702Z,101276.48
2018-01-11T15:11:50.034Z,101278.34
2018-01-11T15:14:18.382Z,101288.59
2018-01-11T15:16:47.554Z,101289.86
2018-01-11T15:19:15.906Z,101291.94
2018-01-11T15:21:44.258Z,101296.80
2018-01-11T15:24:12.609Z,101302.11
2018-01-11T15:26:40.966Z,101307.41
2018-01-11T15:29:09.313Z,101310.04
2018-01-11T15:31:37.649Z,101312.11
2018-01-11T15:34:08.982Z,101312.70
2018-01-11T15:36:37.324Z,101315.11
2018-01-11T15:39:06.590Z,101323.95
2018-01-11T15:41:35.712Z,101318.80
2018-01-11T15:44:04.193Z,101318.80
2018-01-11T15:46:33.434Z,101322.75
2018-01-11T15:49:01.780Z,101324.87
2018-01-11T15:51:30.110Z,101331.92
2018-01-11T15:53:58.470Z,101333.78
2018-01-11T15:56:26.797Z,101335.06
2018-01-11T15:58:55.421Z,101339.41
2018-01-11T16:01:23.753Z,101342.35
2018-01-11T16:03:52.122Z,101341.87
2018-01-11T16:06:21.349Z,101349.30
2018-01-11T16:08:50.096Z,101345.35
2018-01-11T16:11:18.433Z,101354.34
2018-01-11T16:13:49.095Z,101350.16
2018-01-11T16:16:17.470Z,101362.11
2018-01-11T16:18:45.900Z,101359.88
2018-01-11T16:21:15.030Z,101357.61
2018-01-11T16:23:43.382Z,101374.66
2018-01-11T16:26:11.726Z,101371.10
2018-01-11T16:28:40.242Z,101372.68
2018-01-11T16:31:08.566Z,101379.54
2018-01-11T16:33:36.967Z,101375.91
2018-01-11T16:36:05.440Z,101372.23
2018-01-11T16:38:33.893Z,101378.44
2018-01-11T16:41:02.302Z,101386.36
2018-01-11T16:43:30.807Z,101375.36
2018-01-11T16:45:59.289Z,101381.06
2018-01-11T16:48:27.622Z,101389.50
2018-01-11T16:50:56.030Z,101393.84
2018-01-11T16:53:24.550Z,101390.14
2018-01-11T16:55:53.409Z,101393.03
2018-01-11T16:58:21.741Z,101392.95
2018-01-11T17:00:50.065Z,101389.41
2018-01-11T17:03:19.054Z,101401.94
2018-01-11T17:05:48.362Z,101407.30
2018-01-11T17:08:16.759Z,101406.50
2018-01-11T17:10:45.090Z,101411.76
2018-01-11T17:13:13.419Z,101409.94
2018-01-11T17:15:41.777Z,101403.66
2018-01-11T17:18:10.102Z,101407.10
2018-01-11T17:20:38.474Z,101405.75
2018-01-11T17:23:06.829Z,101416.20
2018-01-11T17:25:35.207Z,101419.23
2018-01-11T17:28:03.551Z,101422.27
2018-01-11T17:30:32.082Z,101420.70
2018-01-11T17:33:00.430Z,101430.52
2018-01-11T17:35:30.190Z,101429.98
2018-01-11T17:37:59.434Z,101438.23
2018-01-11T17:40:27.780Z,101441.69
2018-01-11T17:42:56.106Z,101437.26
2018-01-11T17:45:24.481Z,101440.84
2018-01-11T17:47:52.806Z,101441.28
2018-01-11T17:50:21.154Z,101443.00
2018-01-11T17:52:49.497Z,101441.38
2018-01-11T17:55:17.890Z,101444.55
2018-01-11T17:57:46.237Z,101445.33
2018-01-11T18:00:14.607Z,101451.91
2018-01-11T18:02:43.026Z,101454.06
2018-01-11T18:05:11.362Z,101451.03
2018-01-11T18:07:39.828Z,101465.09
2018-01-11T18:10:08.314Z,101455.48
2018-01-11T18:12:36.661Z,101463.41
2018-01-11T18:15:05.009Z,101457.33
2018-01-11T18:17:33.342Z,101453.84
2018-01-11T18:20:01.694Z,101458.67
2018-01-11T18:22:30.030Z,101454.75
2018-01-11T18:24:58.378Z,101460.52
2018-01-11T18:27:26.713Z,101464.05
2018-01-11T18:29:55.053Z,101465.39
2018-01-11T18:32:23.478Z,101474.19
2018-01-11T18:34:51.822Z,101467.66
2018-01-11T18:37:20.146Z,101471.61
2018-01-11T18:39:48.489Z,101473.39
2018-01-11T18:42:16.818Z,101475.04
2018-01-11T18:44:45.170Z,101475.50
2018-01-11T18:47:13.502Z,101479.50
2018-01-11T18:49:41.977Z,101480.84
2018-01-11T18:52:10.302Z,101485.25
2018-01-11T18:54:38.714Z,101493.22
2018-01-11T18:57:07.234Z,101490.60
2018-01-11T18:59:35.756Z,101498.51
2018-01-11T19:02:04.086Z,101497.69
2018-01-11T19:04:33.292Z,101501.22
2018-01-11T19:07:01.609Z,101506.52
2018-01-11T19:09:29.962Z,101512.20
2018-01-11T19:11:58.294Z,101513.51
2018-01-11T19:14:26.746Z,101511.78
2018-01-11T19:16:55.146Z,101518.34
2018-01-11T19:19:23.521Z,101519.66
2018-01-11T19:21:51.862Z,101513.09
2018-01-11T19:24:20.197Z,101521.00
2018-01-11T19:26:48.550Z,101521.00
2018-01-11T19:29:16.886Z,101521.37
2018-01-11T19:31:45.238Z,101527.52
2018-01-11T19:34:13.568Z,101528.44
2018-01-11T19:36:46.972Z,101532.38
2018-01-11T19:39:15.292Z,101529.31
2018-01-11T19:41:43.646Z,101533.25
2018-01-11T19:44:11.965Z,101533.72
2018-01-11T19:46:40.317Z,101536.78
2018-01-11T19:49:08.646Z,101529.33
2018-01-11T19:51:37.833Z,101538.09
2018-01-11T19:54:06.211Z,101539.42
2018-01-11T19:56:34.542Z,101540.31
2018-01-11T19:59:03.522Z,101536.81
2018-01-11T20:01:31.902Z,101545.14
2018-01-11T20:04:00.234Z,101551.30
2018-01-11T20:06:28.582Z,101549.98
2018-01-11T20:08:56.954Z,101553.08
2018-01-11T20:11:25.308Z,101556.59
2018-01-11T20:13:53.673Z,101554.81
2018-01-11T20:16:22.034Z,101556.60
2018-01-11T20:18:50.970Z,101560.98
2018-01-11T20:21:19.327Z,101560.53
2018-01-11T20:23:47.649Z,101558.78
2018-01-11T20:26:16.889Z,101562.28
2018-01-11T20:28:45.221Z,101564.94
2018-01-11T20:31:13.577Z,101570.69
2018-01-11T20:33:41.902Z,101570.27
2018-01-11T20:36:11.194Z,101567.20
2018-01-11T20:38:39.521Z,101575.52
2018-01-11T20:41:07.878Z,101568.08
2018-01-11T20:43:36.214Z,101561.51
2018-01-11T20:46:04.569Z,101569.37
2018-01-11T20:48:32.897Z,101570.67
2018-01-11T20:51:01.257Z,101569.33
2018-01-11T20:53:29.578Z,101573.27
2018-01-11T20:55:57.942Z,101572.87
2018-01-11T20:58:27.053Z,101582.91
2018-01-11T21:00:55.406Z,101579.45
2018-01-11T21:03:23.734Z,101580.77
2018-01-11T21:05:52.101Z,101584.72
2018-01-11T21:08:20.427Z,101584.27
2018-01-11T21:10:48.773Z,101582.50
2018-01-11T21:13:17.109Z,101589.50
2018-01-11T21:15:45.457Z,101593.02
2018-01-11T21:18:13.794Z,101596.92
2018-01-11T21:20:42.151Z,101595.23
2018-01-11T21:23:10.488Z,101606.15
2018-01-11T21:25:39.762Z,101605.70
2018-01-11T21:28:08.114Z,101610.07
2018-01-11T21:30:36.446Z,101613.63
2018-01-11T21:33:04.798Z,101615.82
2018-01-11T21:35:33.127Z,101611.47
2018-01-11T21:38:01.487Z,101618.00
2018-01-11T21:40:29.818Z,101612.76
2018-01-11T21:42:58.226Z,101617.14
2018-01-11T21:45:27.105Z,101618.01
2018-01-11T21:47:55.462Z,101627.17
2018-01-11T21:50:23.794Z,101615.34
2018-01-11T21:52:52.144Z,101625.87
2018-01-11T21:55:20.485Z,101619.31
2018-01-11T21:57:48.829Z,101614.93
2018-01-11T22:00:17.158Z,101617.57
2018-01-11T22:02:45.514Z,101618.47
2018-01-11T22:05:13.846Z,101624.56
2018-01-11T22:07:42.223Z,101637.70
2018-01-11T22:10:10.542Z,101628.53
2018-01-11T22:12:38.898Z,101634.64
2018-01-11T22:15:07.225Z,101635.96
2018-01-11T22:17:35.762Z,101637.70
2018-01-11T22:20:04.090Z,101641.20
2018-01-11T22:22:32.443Z,101649.08
2018-01-11T22:25:00.775Z,101656.50
2018-01-11T22:27:29.130Z,101659.11
2018-01-11T22:29:57.462Z,101652.56
2018-01-11T22:32:25.817Z,101652.12
2018-01-11T22:34:54.159Z,101657.80
2018-01-11T22:37:22.525Z,101658.23
2018-01-11T22:39:50.842Z,101656.92
2018-01-11T22:42:19.194Z,101657.38
2018-01-11T22:44:47.525Z,101666.11
2018-01-11T22:47:15.886Z,101669.62
2018-01-11T22:49:44.206Z,101670.47
2018-01-11T22:52:12.553Z,101676.58
2018-01-11T22:54:40.891Z,101688.41
2018-01-11T22:57:10.202Z,101690.16
2018-01-11T22:59:38.530Z,101688.42
2018-01-11T23:02:06.882Z,101694.52
2018-01-11T23:04:35.208Z,101684.48
2018-01-11T23:07:03.557Z,101682.30
2018-01-11T23:09:31.894Z,101690.18
2018-01-11T23:12:00.250Z,101678.80
2018-01-11T23:14:28.581Z,101683.19
2018-01-11T23:16:56.995Z,101684.48
2018-01-11T23:19:25.313Z,101685.34
2018-01-11T23:21:53.665Z,101684.91
2018-01-11T23:24:21.999Z,101691.05
2018-01-11T23:26:50.358Z,101692.36
2018-01-11T23:29:18.690Z,101689.72
2018-01-11T23:31:47.065Z,101695.42
2018-01-11T23:34:15.419Z,101684.91
2018-01-11T23:36:43.742Z,101686.64
2018-01-11T23:39:12.097Z,101687.11
2018-01-11T23:41:40.426Z,101689.28
2018-01-11T23:44:08.782Z,101691.88
2018-01-11T23:46:37.109Z,101691.46
2018-01-11T23:49:05.500Z,101686.63
2018-01-11T23:51:33.818Z,101697.12
2018-01-11T23:54:02.170Z,101692.29
2018-01-11T23:56:30.638Z,101690.99
2018-01-11T23:58:58.998Z,101690.55
